createdAt,value
2023-05-14T00:01:02.762Z,37.10
2023-05-14T00:03:29.528Z,36.90
2023-05-14T00:05:57.564Z,37.10
2023-05-14T00:08:24.282Z,37.10
2023-05-14T00:10:51.011Z,37.00
2023-05-14T00:13:17.711Z,37.10
2023-05-14T00:17:46.805Z,37.20
2023-05-14T00:20:13.641Z,37.70
2023-05-14T00:22:40.592Z,36.30
2023-05-14T00:25:08.716Z,36.60
2023-05-14T00:27:35.750Z,37.10
2023-05-14T00:30:02.769Z,37.00
2023-05-14T00:32:29.627Z,37.10
2023-05-14T00:34:57.968Z,37.20
2023-05-14T00:37:24.836Z,37.30
2023-05-14T00:39:51.529Z,37.30
2023-05-14T00:42:18.239Z,37.10
2023-05-14T00:44:44.878Z,37.20
2023-05-14T00:47:11.981Z,37.10
2023-05-14T00:49:38.698Z,37.60
2023-05-14T00:52:07.093Z,37.50
2023-05-14T00:54:34.739Z,37.40
2023-05-14T00:57:01.887Z,37.50
2023-05-14T00:59:28.553Z,37.40
2023-05-14T01:01:55.392Z,37.70
2023-05-14T01:04:22.321Z,37.50
2023-05-14T01:06:57.586Z,37.90
2023-05-14T01:09:31.390Z,38.00
2023-05-14T01:12:02.803Z,37.90
2023-05-14T01:14:38.129Z,37.70
2023-05-14T01:17:05.160Z,37.80
2023-05-14T01:19:37.820Z,37.60
2023-05-14T01:22:06.024Z,37.80
2023-05-14T01:24:32.849Z,37.70
2023-05-14T01:27:05.277Z,37.80
2023-05-14T01:29:34.680Z,37.70
2023-05-14T01:32:04.180Z,37.90
2023-05-14T01:34:31.603Z,37.90
2023-05-14T01:36:59.164Z,38.20
2023-05-14T01:39:27.877Z,38.10
2023-05-14T01:41:54.994Z,37.80
2023-05-14T01:44:22.118Z,38.60
2023-05-14T01:46:48.792Z,38.30
2023-05-14T01:49:15.578Z,38.30
2023-05-14T01:51:42.239Z,38.30
2023-05-14T01:54:08.918Z,38.00
2023-05-14T01:56:36.982Z,38.00
2023-05-14T01:59:03.679Z,38.20
2023-05-14T02:01:30.465Z,37.80
2023-05-14T02:03:57.272Z,37.80
2023-05-14T02:06:24.055Z,37.40
2023-05-14T02:08:50.742Z,37.60
2023-05-14T02:11:17.457Z,38.40
2023-05-14T02:13:45.581Z,38.40
2023-05-14T02:16:12.350Z,38.80
2023-05-14T02:18:39.057Z,38.30
2023-05-14T02:21:05.784Z,38.20
2023-05-14T02:23:40.975Z,38.90
2023-05-14T02:26:09.195Z,38.40
2023-05-14T02:28:35.968Z,38.30
2023-05-14T02:31:04.011Z,38.70
2023-05-14T02:33:30.750Z,38.20
2023-05-14T02:35:57.507Z,38.30
2023-05-14T02:38:24.196Z,39.00
2023-05-14T02:40:50.860Z,39.00
2023-05-14T02:43:17.548Z,39.10
2023-05-14T02:45:44.227Z,38.30
2023-05-14T02:48:12.245Z,39.10
2023-05-14T02:50:39.169Z,39.50
2023-05-14T02:53:05.850Z,38.90
2023-05-14T02:55:32.577Z,38.30
2023-05-14T02:57:59.255Z,38.70
2023-05-14T03:00:26.156Z,38.40
2023-05-14T03:02:53.570Z,38.30
2023-05-14T03:05:22.336Z,37.90
2023-05-14T03:07:50.806Z,38.20
2023-05-14T03:10:17.564Z,38.50
2023-05-14T03:12:44.249Z,38.50
2023-05-14T03:15:11.533Z,38.30
2023-05-14T03:17:38.227Z,38.30
2023-05-14T03:20:05.933Z,38.60
2023-05-14T03:22:34.100Z,39.00
2023-05-14T03:25:00.784Z,38.80
2023-05-14T03:27:27.431Z,38.40
2023-05-14T03:29:54.189Z,39.00
2023-05-14T03:32:20.923Z,38.90
2023-05-14T03:34:47.666Z,39.40
2023-05-14T03:37:14.377Z,40.00
2023-05-14T03:39:42.415Z,39.40
2023-05-14T03:42:09.138Z,39.00
2023-05-14T03:44:35.820Z,39.40
2023-05-14T03:47:02.497Z,40.40
2023-05-14T03:49:29.203Z,40.30
2023-05-14T03:51:55.895Z,40.40
2023-05-14T03:54:22.579Z,40.70
2023-05-14T03:56:50.634Z,41.70
2023-05-14T03:59:17.345Z,41.60
2023-05-14T04:01:44.225Z,42.10
2023-05-14T04:04:10.983Z,43.30
2023-05-14T04:06:37.700Z,43.30
2023-05-14T04:09:04.438Z,42.40
2023-05-14T04:11:31.336Z,42.50
2023-05-14T04:13:59.704Z,41.40
2023-05-14T04:16:26.433Z,41.40
2023-05-14T04:18:53.253Z,42.50
2023-05-14T04:21:20.024Z,42.20
2023-05-14T04:23:46.737Z,41.80
2023-05-14T04:26:13.454Z,42.10
2023-05-14T04:28:40.100Z,42.20
2023-05-14T04:31:08.105Z,42.80
2023-05-14T04:33:34.800Z,42.90
2023-05-14T04:36:01.455Z,43.30
2023-05-14T04:38:28.174Z,43.60
2023-05-14T04:40:54.880Z,43.50
2023-05-14T04:43:21.574Z,42.70
2023-05-14T04:45:48.273Z,42.40
2023-05-14T04:48:16.391Z,43.20
2023-05-14T04:50:43.196Z,44.00
2023-05-14T04:53:10.164Z,43.80
2023-05-14T04:55:37.019Z,43.50
2023-05-14T04:58:03.708Z,42.70
2023-05-14T05:00:30.424Z,42.70
2023-05-14T05:02:57.190Z,43.30
2023-05-14T05:05:25.405Z,42.50
2023-05-14T05:07:52.085Z,43.00
2023-05-14T05:10:18.781Z,43.00
2023-05-14T05:12:45.474Z,42.50
2023-05-14T05:15:12.216Z,42.70
2023-05-14T05:17:38.955Z,42.20
2023-05-14T05:20:06.934Z,42.50
2023-05-14T05:22:35.037Z,43.00
2023-05-14T05:25:01.896Z,43.80
2023-05-14T05:27:28.567Z,43.50
2023-05-14T05:29:55.275Z,43.70
2023-05-14T05:32:21.923Z,42.90
2023-05-14T05:34:48.598Z,42.90
2023-05-14T05:37:15.271Z,43.10
2023-05-14T05:39:43.508Z,43.30
2023-05-14T05:42:10.278Z,43.30
2023-05-14T05:44:36.945Z,43.20
2023-05-14T05:47:03.920Z,44.20
2023-05-14T05:49:30.625Z,44.10
2023-05-14T05:51:57.363Z,43.70
2023-05-14T05:54:24.581Z,44.60
2023-05-14T05:56:52.668Z,44.30
2023-05-14T05:59:19.371Z,44.50
2023-05-14T06:01:46.072Z,44.30
2023-05-14T06:04:12.729Z,43.90
2023-05-14T06:06:39.419Z,43.30
2023-05-14T06:09:06.122Z,44.20
2023-05-14T06:11:32.881Z,44.30
2023-05-14T06:14:00.932Z,43.40
2023-05-14T06:16:27.764Z,42.50
2023-05-14T06:18:54.772Z,42.90
2023-05-14T06:21:21.728Z,43.60
2023-05-14T06:23:48.781Z,43.80
2023-05-14T06:26:15.566Z,43.50
2023-05-14T06:28:42.208Z,43.70
2023-05-14T06:31:10.301Z,43.30
2023-05-14T06:33:36.998Z,43.30
2023-05-14T06:36:05.785Z,43.30
2023-05-14T06:38:32.488Z,43.40
2023-05-14T06:40:59.130Z,43.10
2023-05-14T06:43:25.904Z,43.80
2023-05-14T06:45:52.938Z,43.30
2023-05-14T06:48:21.401Z,43.40
2023-05-14T06:50:48.934Z,44.00
2023-05-14T06:53:16.124Z,44.60
2023-05-14T06:55:43.001Z,44.30
2023-05-14T06:58:09.959Z,44.10
2023-05-14T07:00:36.644Z,43.40
2023-05-14T07:03:03.373Z,44.50
2023-05-14T07:05:31.538Z,43.90
2023-05-14T07:07:58.267Z,44.00
2023-05-14T07:10:25.144Z,42.90
2023-05-14T07:12:52.058Z,43.60
2023-05-14T07:15:19.113Z,43.80
2023-05-14T07:17:45.813Z,43.60
2023-05-14T07:20:13.389Z,43.60
2023-05-14T07:22:41.451Z,43.30
2023-05-14T07:25:08.705Z,43.20
2023-05-14T07:27:36.689Z,43.10
2023-05-14T07:30:20.063Z,42.50
2023-05-14T07:32:47.419Z,42.90
2023-05-14T07:35:14.321Z,43.00
2023-05-14T07:37:45.558Z,42.70
2023-05-14T07:40:12.822Z,43.30
2023-05-14T07:42:39.623Z,42.50
2023-05-14T07:45:07.465Z,43.10
2023-05-14T07:47:34.327Z,43.50
2023-05-14T07:50:01.424Z,42.80
2023-05-14T07:52:28.166Z,42.80
2023-05-14T07:54:56.270Z,42.50
2023-05-14T07:57:22.948Z,42.20
2023-05-14T07:59:49.777Z,42.40
2023-05-14T08:02:16.859Z,42.40
2023-05-14T08:04:43.951Z,43.50
2023-05-14T08:07:10.672Z,43.30
2023-05-14T08:09:37.442Z,43.50
2023-05-14T08:12:06.562Z,44.30
2023-05-14T08:14:33.212Z,44.30
2023-05-14T08:16:59.940Z,44.10
2023-05-14T08:19:26.626Z,43.50
2023-05-14T08:21:53.310Z,42.80
2023-05-14T08:24:20.140Z,42.00
2023-05-14T08:26:46.818Z,42.10
2023-05-14T08:29:16.579Z,42.40
2023-05-14T08:31:43.825Z,41.50
2023-05-14T08:34:10.624Z,41.60
2023-05-14T08:36:38.342Z,41.20
2023-05-14T08:39:05.211Z,41.30
2023-05-14T08:41:32.091Z,41.50
2023-05-14T08:44:07.184Z,41.20
2023-05-14T08:46:37.302Z,41.40
2023-05-14T08:49:13.265Z,42.20
2023-05-14T08:51:40.211Z,41.20
2023-05-14T08:54:07.240Z,41.20
2023-05-14T08:56:34.076Z,42.20
2023-05-14T08:59:00.783Z,41.60
2023-05-14T09:01:28.345Z,40.90
2023-05-14T09:03:57.829Z,38.20
2023-05-14T09:06:25.397Z,37.90
2023-05-14T09:08:52.894Z,37.90
2023-05-14T09:11:19.570Z,37.60
2023-05-14T09:13:46.228Z,36.70
2023-05-14T09:16:13.246Z,35.80
2023-05-14T09:18:43.699Z,35.50
2023-05-14T09:21:13.719Z,35.90
2023-05-14T09:23:42.291Z,34.40
2023-05-14T09:26:08.960Z,34.00
2023-05-14T09:28:35.684Z,33.30
2023-05-14T09:31:02.897Z,33.30
2023-05-14T09:33:29.873Z,33.40
2023-05-14T09:35:58.891Z,33.10
2023-05-14T09:38:29.740Z,32.30
2023-05-14T09:40:56.508Z,33.30
2023-05-14T09:43:23.292Z,32.70
2023-05-14T09:45:50.091Z,31.70
2023-05-14T09:48:16.795Z,32.10
2023-05-14T09:50:44.203Z,31.90
2023-05-14T09:53:11.156Z,31.40
2023-05-14T09:55:39.466Z,31.40
2023-05-14T09:58:06.229Z,31.40
2023-05-14T10:00:33.997Z,31.30
2023-05-14T10:03:04.733Z,31.10
2023-05-14T10:05:32.898Z,31.00
2023-05-14T10:08:00.773Z,31.20
2023-05-14T10:10:29.551Z,30.90
2023-05-14T10:13:02.651Z,31.20
2023-05-14T10:15:33.818Z,30.70
2023-05-14T10:18:03.867Z,31.00
2023-05-14T10:20:31.353Z,30.00
2023-05-14T10:22:58.652Z,30.10
2023-05-14T10:25:25.897Z,29.60
2023-05-14T10:27:53.320Z,28.40
2023-05-14T10:30:22.830Z,28.70
2023-05-14T10:32:49.836Z,28.90
2023-05-14T10:35:18.015Z,30.00
2023-05-14T10:37:45.199Z,29.20
2023-05-14T10:40:12.688Z,29.30
2023-05-14T10:42:39.715Z,29.50
2023-05-14T10:45:08.210Z,29.50
2023-05-14T10:47:38.573Z,29.50
2023-05-14T10:50:07.824Z,28.60
2023-05-14T10:52:35.109Z,29.10
2023-05-14T10:55:04.092Z,28.90
2023-05-14T10:57:32.616Z,29.30
2023-05-14T11:00:00.644Z,29.30
2023-05-14T11:02:28.765Z,29.40
2023-05-14T11:05:01.181Z,27.00
2023-05-14T11:07:30.022Z,28.00
2023-05-14T11:10:04.684Z,28.90
2023-05-14T11:12:32.062Z,27.80
2023-05-14T11:15:00.396Z,27.20
2023-05-14T11:17:28.394Z,28.30
2023-05-14T11:19:55.868Z,27.30
2023-05-14T11:22:24.566Z,28.00
2023-05-14T11:24:51.461Z,28.20
2023-05-14T11:27:18.704Z,28.00
2023-05-14T11:29:46.646Z,28.60
2023-05-14T11:32:14.229Z,28.10
2023-05-14T11:34:41.740Z,27.80
2023-05-14T11:37:09.228Z,27.80
2023-05-14T11:39:37.272Z,28.30
2023-05-14T11:42:05.283Z,28.40
2023-05-14T11:44:32.237Z,28.20
2023-05-14T11:47:00.850Z,28.20
2023-05-14T11:49:28.466Z,28.00
2023-05-14T11:51:58.190Z,28.00
2023-05-14T11:54:26.440Z,28.60
2023-05-14T11:56:54.978Z,28.60
2023-05-14T11:59:22.014Z,28.80
2023-05-14T12:01:50.690Z,28.90
2023-05-14T12:04:18.830Z,28.40
2023-05-14T12:06:45.649Z,27.90
2023-05-14T12:09:12.869Z,27.80
2023-05-14T12:11:39.517Z,27.90
2023-05-14T12:14:14.356Z,28.10
2023-05-14T12:16:41.870Z,28.40
2023-05-14T12:19:09.989Z,28.30
2023-05-14T12:21:37.278Z,28.70
2023-05-14T12:24:04.362Z,28.50
2023-05-14T12:26:32.873Z,28.20
2023-05-14T12:29:00.880Z,28.10
2023-05-14T12:31:32.424Z,28.40
2023-05-14T12:33:59.265Z,27.40
2023-05-14T12:36:26.263Z,28.20
2023-05-14T12:38:59.016Z,27.30
2023-05-14T12:41:25.758Z,26.80
2023-05-14T12:43:52.396Z,27.50
2023-05-14T12:46:19.227Z,27.70
2023-05-14T12:48:47.307Z,27.80
2023-05-14T12:51:14.031Z,27.80
2023-05-14T12:53:40.731Z,28.20
2023-05-14T12:56:07.929Z,27.70
2023-05-14T12:58:34.613Z,28.00
2023-05-14T13:01:01.461Z,28.30
2023-05-14T13:03:28.289Z,27.40
2023-05-14T13:05:56.458Z,27.40
2023-05-14T13:08:23.539Z,27.80
2023-05-14T13:10:50.368Z,27.90
2023-05-14T13:13:17.145Z,28.30
2023-05-14T13:15:43.941Z,28.40
2023-05-14T13:18:10.697Z,28.00
2023-05-14T13:20:37.362Z,27.90
2023-05-14T13:23:05.346Z,27.70
2023-05-14T13:25:32.075Z,27.70
2023-05-14T13:27:58.887Z,28.00
2023-05-14T13:30:25.729Z,27.70
2023-05-14T13:32:52.459Z,27.70
2023-05-14T13:35:19.504Z,27.70
2023-05-14T13:37:46.990Z,27.80
2023-05-14T13:40:15.291Z,28.00
2023-05-14T13:42:41.940Z,27.80
2023-05-14T13:45:09.407Z,28.00
2023-05-14T13:47:36.167Z,27.90
2023-05-14T13:50:03.209Z,28.00
2023-05-14T13:52:29.903Z,27.90
2023-05-14T13:54:56.595Z,28.10
2023-05-14T13:57:24.652Z,27.80
2023-05-14T13:59:51.365Z,28.10
2023-05-14T14:02:18.123Z,28.10
2023-05-14T14:04:44.932Z,28.10
2023-05-14T14:07:11.688Z,28.40
2023-05-14T14:09:38.383Z,28.40
2023-05-14T14:12:06.061Z,28.20
2023-05-14T14:14:34.170Z,27.90
2023-05-14T14:17:00.810Z,28.40
2023-05-14T14:19:27.484Z,28.10
2023-05-14T14:21:54.204Z,28.00
2023-05-14T14:24:20.917Z,28.10
2023-05-14T14:26:47.606Z,28.20
2023-05-14T14:29:14.537Z,28.50
2023-05-14T14:31:51.365Z,28.70
2023-05-14T14:34:30.031Z,28.70
2023-05-14T14:36:56.747Z,28.30
2023-05-14T14:39:23.450Z,28.40
2023-05-14T14:41:50.212Z,29.00
2023-05-14T14:44:16.948Z,28.80
2023-05-14T14:46:44.979Z,28.70
2023-05-14T14:49:11.666Z,28.90
2023-05-14T14:51:38.390Z,28.80
2023-05-14T14:54:05.253Z,29.10
2023-05-14T14:56:32.400Z,28.80
2023-05-14T14:58:59.115Z,28.70
2023-05-14T15:01:25.967Z,28.50
2023-05-14T15:03:54.097Z,28.60
2023-05-14T15:06:20.844Z,28.20
2023-05-14T15:08:47.504Z,27.80
2023-05-14T15:11:14.347Z,27.70
2023-05-14T15:13:41.038Z,27.80
2023-05-14T15:16:07.851Z,27.40
2023-05-14T15:18:34.627Z,25.90
2023-05-14T15:21:02.644Z,26.50
2023-05-14T15:23:29.333Z,26.30
2023-05-14T15:25:55.969Z,26.10
2023-05-14T15:28:22.665Z,26.30
2023-05-14T15:30:49.394Z,26.50
2023-05-14T15:33:16.126Z,27.10
2023-05-14T15:35:42.788Z,27.80
2023-05-14T15:38:10.908Z,27.40
2023-05-14T15:40:37.660Z,27.40
2023-05-14T15:43:04.549Z,27.60
2023-05-14T15:45:31.264Z,27.90
2023-05-14T15:47:58.016Z,27.50
2023-05-14T15:50:24.896Z,27.70
2023-05-14T15:52:51.765Z,27.80
2023-05-14T15:55:19.858Z,27.50
2023-05-14T15:57:46.720Z,27.70
2023-05-14T16:00:14.069Z,27.60
2023-05-14T16:02:40.867Z,27.60
2023-05-14T16:05:08.347Z,27.80
2023-05-14T16:07:35.711Z,27.80
2023-05-14T16:10:02.497Z,27.90
2023-05-14T16:12:30.578Z,28.30
2023-05-14T16:14:57.263Z,28.40
2023-05-14T16:17:24.132Z,28.50
2023-05-14T16:19:51.142Z,28.60
2023-05-14T16:22:18.330Z,28.60
2023-05-14T16:24:45.024Z,28.60
2023-05-14T16:27:11.862Z,28.80
2023-05-14T16:29:39.866Z,28.60
2023-05-14T16:32:07.140Z,28.80
2023-05-14T16:34:34.079Z,29.10
2023-05-14T16:37:00.869Z,29.20
2023-05-14T16:39:27.658Z,29.30
2023-05-14T16:41:54.472Z,28.50
2023-05-14T16:44:21.206Z,29.00
2023-05-14T16:46:49.299Z,29.40
2023-05-14T16:49:16.124Z,29.20
2023-05-14T16:51:44.194Z,29.30
2023-05-14T16:54:10.947Z,28.80
2023-05-14T16:56:37.694Z,28.70
2023-05-14T16:59:04.528Z,28.30
2023-05-14T17:01:31.758Z,28.10
2023-05-14T17:03:59.813Z,28.20
2023-05-14T17:06:26.570Z,28.30
2023-05-14T17:08:55.353Z,28.10
2023-05-14T17:11:22.243Z,28.10
2023-05-14T17:13:48.922Z,28.20
2023-05-14T17:16:15.652Z,27.90
2023-05-14T17:18:42.495Z,28.10
2023-05-14T17:21:10.600Z,28.10
2023-05-14T17:23:37.382Z,28.00
2023-05-14T17:26:06.565Z,28.20
2023-05-14T17:28:33.353Z,28.30
2023-05-14T17:31:00.150Z,28.10
2023-05-14T17:33:26.869Z,28.50
2023-05-14T17:35:53.683Z,28.70
2023-05-14T17:38:21.760Z,28.50
2023-05-14T17:40:48.463Z,28.60
2023-05-14T17:43:15.175Z,28.90
2023-05-14T17:45:53.283Z,29.10
2023-05-14T17:48:21.503Z,29.10
2023-05-14T17:50:48.291Z,29.20
2023-05-14T17:53:15.039Z,29.30
2023-05-14T17:55:43.441Z,29.40
2023-05-14T17:58:10.766Z,29.40
2023-05-14T18:00:37.573Z,29.20
2023-05-14T18:03:04.651Z,29.20
2023-05-14T18:05:32.272Z,29.30
2023-05-14T18:07:59.470Z,29.10
2023-05-14T18:10:26.239Z,29.50
2023-05-14T18:12:54.321Z,29.40
2023-05-14T18:15:21.112Z,29.50
2023-05-14T18:17:47.925Z,29.70
2023-05-14T18:20:14.623Z,29.80
2023-05-14T18:22:41.329Z,29.50
2023-05-14T18:25:08.768Z,29.60
2023-05-14T18:27:35.508Z,29.70
2023-05-14T18:30:03.841Z,29.70
2023-05-14T18:32:30.534Z,29.90
2023-05-14T18:34:57.188Z,30.00
2023-05-14T18:37:23.852Z,30.10
2023-05-14T18:39:50.492Z,30.00
2023-05-14T18:42:17.203Z,30.30
2023-05-14T18:44:44.148Z,30.10
2023-05-14T18:47:12.423Z,30.00
2023-05-14T18:49:39.082Z,30.30
2023-05-14T18:52:06.480Z,30.30
2023-05-14T18:54:33.382Z,30.40
2023-05-14T18:57:00.709Z,30.40
2023-05-14T18:59:27.406Z,30.30
2023-05-14T19:01:54.108Z,30.40
2023-05-14T19:04:22.133Z,30.50
2023-05-14T19:06:48.821Z,30.60
2023-05-14T19:09:15.489Z,30.70
2023-05-14T19:11:42.170Z,30.80
2023-05-14T19:14:09.043Z,30.80
2023-05-14T19:16:35.768Z,31.00
2023-05-14T19:19:03.445Z,31.10
2023-05-14T19:21:31.846Z,31.00
2023-05-14T19:23:58.940Z,31.10
2023-05-14T19:26:25.978Z,31.30
2023-05-14T19:28:54.553Z,31.30
2023-05-14T19:31:21.622Z,31.40
2023-05-14T19:33:48.405Z,31.40
2023-05-14T19:36:15.493Z,31.40
2023-05-14T19:38:43.579Z,31.60
2023-05-14T19:41:10.292Z,31.70
2023-05-14T19:43:36.985Z,31.70
2023-05-14T19:46:04.450Z,31.60
2023-05-14T19:48:31.813Z,31.90
2023-05-14T19:50:58.509Z,32.00
2023-05-14T19:53:25.306Z,32.10
2023-05-14T19:55:53.345Z,32.40
2023-05-14T19:58:20.077Z,32.30
2023-05-14T20:00:46.943Z,32.40
2023-05-14T20:03:13.812Z,32.50
2023-05-14T20:05:40.577Z,32.60
2023-05-14T20:08:07.403Z,32.60
2023-05-14T20:10:34.058Z,32.60
2023-05-14T20:13:02.016Z,32.60
2023-05-14T20:15:28.736Z,32.60
2023-05-14T20:17:55.473Z,32.70
2023-05-14T20:20:22.269Z,32.60
2023-05-14T20:22:48.993Z,32.80
2023-05-14T20:25:15.727Z,32.80
2023-05-14T20:27:42.523Z,33.00
2023-05-14T20:30:11.124Z,32.80
2023-05-14T20:32:37.919Z,32.80
2023-05-14T20:35:05.473Z,32.80
2023-05-14T20:37:32.541Z,32.70
2023-05-14T20:40:00.785Z,32.70
2023-05-14T20:42:27.724Z,32.80
2023-05-14T20:44:54.641Z,32.90
2023-05-14T20:47:25.644Z,32.80
2023-05-14T20:49:52.341Z,32.80
2023-05-14T20:52:19.319Z,32.90
2023-05-14T20:54:46.030Z,33.20
2023-05-14T20:57:12.966Z,33.10
2023-05-14T20:59:39.646Z,33.30
2023-05-14T21:02:06.407Z,33.40
2023-05-14T21:04:34.617Z,33.30
2023-05-14T21:07:01.911Z,33.30
2023-05-14T21:09:28.560Z,33.30
2023-05-14T21:11:55.227Z,33.40
2023-05-14T21:14:22.008Z,33.60
2023-05-14T21:16:48.879Z,33.70
2023-05-14T21:19:15.744Z,34.00
2023-05-14T21:21:43.896Z,34.00
2023-05-14T21:24:10.633Z,34.30
2023-05-14T21:26:37.576Z,34.50
2023-05-14T21:29:04.222Z,34.80
2023-05-14T21:31:30.963Z,34.90
2023-05-14T21:33:57.674Z,34.80
2023-05-14T21:36:24.384Z,34.70
2023-05-14T21:38:53.086Z,34.80
2023-05-14T21:41:19.844Z,34.70
2023-05-14T21:43:46.666Z,34.90
2023-05-14T21:46:13.415Z,34.70
2023-05-14T21:48:40.236Z,35.10
2023-05-14T21:51:07.174Z,35.00
2023-05-14T21:53:33.866Z,35.00
2023-05-14T21:56:01.892Z,35.10
2023-05-14T21:58:28.593Z,35.00
2023-05-14T22:00:55.282Z,35.00
2023-05-14T22:03:22.148Z,35.00
2023-05-14T22:05:49.160Z,35.00
2023-05-14T22:08:15.916Z,35.30
2023-05-14T22:10:42.617Z,35.90
2023-05-14T22:13:10.704Z,35.30
2023-05-14T22:15:38.075Z,35.40
2023-05-14T22:18:05.180Z,35.30
2023-05-14T22:20:34.380Z,35.20
2023-05-14T22:23:17.312Z,35.40
2023-05-14T22:25:56.264Z,35.50
2023-05-14T22:28:32.811Z,35.90
2023-05-14T22:34:23.331Z,35.40
2023-05-14T22:44:13.676Z,35.90
2023-05-14T22:46:41.735Z,35.80
2023-05-14T22:49:08.435Z,35.80
2023-05-14T22:51:35.077Z,35.70
2023-05-14T22:54:01.743Z,35.80
2023-05-14T22:56:28.557Z,35.70
2023-05-14T22:58:55.243Z,35.90
2023-05-14T23:01:22.012Z,36.10
2023-05-14T23:03:50.188Z,36.10
2023-05-14T23:06:16.919Z,36.20
2023-05-14T23:08:43.646Z,35.90
2023-05-14T23:11:10.328Z,36.10
2023-05-14T23:13:37.003Z,36.10
2023-05-14T23:16:04.308Z,36.30
2023-05-14T23:18:31.014Z,36.40
2023-05-14T23:20:59.316Z,36.40
2023-05-14T23:23:25.940Z,36.70
2023-05-14T23:25:53.160Z,36.70
2023-05-14T23:28:19.844Z,36.70
2023-05-14T23:30:46.502Z,36.70
2023-05-14T23:33:13.229Z,36.70
2023-05-14T23:35:40.211Z,36.70
2023-05-14T23:38:08.469Z,37.00
2023-05-14T23:40:35.263Z,36.80
2023-05-14T23:43:01.885Z,37.00
2023-05-14T23:45:28.983Z,37.60
2023-05-14T23:47:58.072Z,37.80
2023-05-14T23:50:25.114Z,37.40
2023-05-14T23:52:52.804Z,37.20
2023-05-14T23:55:20.928Z,37.20
2023-05-14T23:57:48.029Z,37.10
